createdAt,value
2019-01-12T00:00:14.982Z,1.50
2019-01-12T00:02:42.993Z,1.20
2019-01-12T00:05:11.017Z,1.20
2019-01-12T00:07:39.115Z,0.97
2019-01-12T00:10:07.524Z,1.27
2019-01-12T00:12:35.733Z,1.83
2019-01-12T00:15:04.551Z,2.10
2019-01-12T00:17:32.478Z,2.00
2019-01-12T00:20:00.527Z,3.30
2019-01-12T00:22:30.746Z,4.10
2019-01-12T00:24:58.677Z,5.17
2019-01-12T00:27:26.657Z,5.70
2019-01-12T00:29:59.287Z,6.27
2019-01-12T00:32:27.166Z,7.20
2019-01-12T00:34:59.599Z,8.83
2019-01-12T00:37:27.652Z,8.80
2019-01-12T00:39:55.664Z,9.67
2019-01-12T00:42:25.022Z,9.83
2019-01-12T00:44:53.165Z,11.30
2019-01-12T00:47:23.398Z,12.00
2019-01-12T00:49:51.502Z,13.67
2019-01-12T00:52:19.479Z,14.07
2019-01-12T00:54:47.617Z,13.70
2019-01-12T00:57:15.725Z,13.17
2019-01-12T00:59:45.177Z,14.97
2019-01-12T01:02:18.266Z,14.07
2019-01-12T01:04:49.388Z,13.77
2019-01-12T01:07:17.319Z,12.33
2019-01-12T01:09:47.610Z,13.23
2019-01-12T01:12:15.655Z,12.30
2019-01-12T01:14:43.658Z,12.27
2019-01-12T01:17:11.606Z,11.23
2019-01-12T01:19:43.704Z,10.43
2019-01-12T01:22:09.516Z,10.20
2019-01-12T01:24:37.553Z,10.00
2019-01-12T01:27:06.589Z,9.70
2019-01-12T01:29:37.423Z,9.33
2019-01-12T01:32:05.358Z,7.37
2019-01-12T01:34:33.178Z,7.23
2019-01-12T01:37:01.172Z,5.77
2019-01-12T01:39:29.273Z,5.90
2019-01-12T01:41:57.233Z,4.70
2019-01-12T01:44:25.153Z,5.67
2019-01-12T01:46:53.253Z,5.50
2019-01-12T01:49:21.161Z,4.60
2019-01-12T01:51:52.139Z,5.30
2019-01-12T01:54:21.341Z,5.87
2019-01-12T01:56:51.590Z,5.43
2019-01-12T01:59:19.552Z,5.40
2019-01-12T02:01:47.540Z,5.53
2019-01-12T02:04:15.425Z,5.87
2019-01-12T02:06:43.335Z,5.40
2019-01-12T02:09:11.257Z,4.60
2019-01-12T02:11:39.188Z,4.00
2019-01-12T02:14:07.324Z,4.53
2019-01-12T02:16:38.254Z,4.63
2019-01-12T02:19:09.460Z,4.50
2019-01-12T02:21:37.902Z,5.13
2019-01-12T02:24:08.668Z,3.83
2019-01-12T02:26:43.457Z,4.17
2019-01-12T02:29:15.501Z,4.50
2019-01-12T02:31:47.990Z,4.93
2019-01-12T02:34:21.016Z,5.70
2019-01-12T02:36:50.244Z,5.50
2019-01-12T02:39:19.569Z,5.50
2019-01-12T02:41:51.226Z,5.20
2019-01-12T02:44:20.250Z,5.80
2019-01-12T02:46:48.674Z,6.10
2019-01-12T02:49:18.640Z,6.80
2019-01-12T02:51:47.319Z,6.53
2019-01-12T02:54:16.370Z,8.17
2019-01-12T02:56:44.607Z,9.00
2019-01-12T02:59:12.623Z,9.33
2019-01-12T03:01:41.008Z,11.60
2019-01-12T03:04:09.870Z,11.67
2019-01-12T03:06:44.339Z,12.63
2019-01-12T03:09:12.842Z,14.60
2019-01-12T03:11:42.290Z,13.07
2019-01-12T03:14:11.254Z,15.57
2019-01-12T03:16:46.092Z,13.87
2019-01-12T03:19:18.571Z,12.60
2019-01-12T03:21:47.496Z,13.27
2019-01-12T03:24:19.651Z,13.77
2019-01-12T03:26:47.819Z,13.57
2019-01-12T03:29:18.189Z,12.63
2019-01-12T03:31:50.169Z,12.77
2019-01-12T03:34:22.196Z,12.63
2019-01-12T03:36:51.196Z,13.53
2019-01-12T03:39:19.174Z,12.53
2019-01-12T03:41:47.286Z,13.70
2019-01-12T03:44:17.503Z,14.57
2019-01-12T03:46:49.631Z,16.27
2019-01-12T03:49:17.712Z,17.50
2019-01-12T03:51:45.682Z,18.30
2019-01-12T03:54:13.726Z,19.20
2019-01-12T03:56:41.743Z,19.43
2019-01-12T03:59:09.671Z,20.87
2019-01-12T04:01:37.644Z,21.60
2019-01-12T04:04:05.676Z,22.93
2019-01-12T04:06:33.617Z,21.80
2019-01-12T04:09:01.644Z,21.10
2019-01-12T04:11:30.993Z,22.90
2019-01-12T04:14:01.405Z,21.57
2019-01-12T04:16:29.519Z,22.30
2019-01-12T04:19:01.345Z,22.07
2019-01-12T04:21:29.217Z,20.70
2019-01-12T04:23:59.691Z,18.20
2019-01-12T04:26:31.964Z,18.10
2019-01-12T04:28:59.883Z,18.33
2019-01-12T04:31:28.941Z,17.63
2019-01-12T04:33:58.103Z,18.40
2019-01-12T04:36:28.215Z,18.40
2019-01-12T04:38:56.228Z,17.83
2019-01-12T04:41:24.222Z,19.03
2019-01-12T04:43:53.345Z,17.03
2019-01-12T04:46:21.413Z,16.17
2019-01-12T04:48:51.854Z,15.73
2019-01-12T04:51:19.855Z,16.60
2019-01-12T04:53:47.753Z,15.50
2019-01-12T04:56:15.644Z,16.30
2019-01-12T04:58:43.612Z,13.87
2019-01-12T05:01:13.396Z,13.57
2019-01-12T05:03:41.571Z,14.10
2019-01-12T05:06:09.369Z,14.27
2019-01-12T05:08:37.319Z,15.03
2019-01-12T05:11:05.347Z,14.57
2019-01-12T05:13:35.909Z,14.50
2019-01-12T05:16:03.972Z,15.30
2019-01-12T05:18:31.954Z,12.93
2019-01-12T05:20:59.877Z,12.87
2019-01-12T05:23:30.117Z,13.13
2019-01-12T05:25:58.002Z,11.00
2019-01-12T05:28:28.620Z,12.63
2019-01-12T05:30:58.863Z,11.10
2019-01-12T05:33:26.820Z,10.80
2019-01-12T05:35:57.044Z,9.70
2019-01-12T05:38:24.999Z,10.10
2019-01-12T05:40:52.892Z,9.97
2019-01-12T05:43:20.985Z,8.70
2019-01-12T05:45:51.041Z,8.90
2019-01-12T05:48:19.127Z,9.40
2019-01-12T05:50:47.103Z,10.23
2019-01-12T05:53:15.111Z,10.20
2019-01-12T05:55:45.661Z,10.27
2019-01-12T05:58:13.559Z,12.03
2019-01-12T06:00:43.648Z,11.00
2019-01-12T06:03:12.970Z,10.60
2019-01-12T06:05:40.829Z,11.40
2019-01-12T06:08:08.677Z,9.93
2019-01-12T06:10:36.614Z,10.27
2019-01-12T06:13:05.164Z,10.33
2019-01-12T06:15:33.207Z,10.13
2019-01-12T06:18:06.311Z,10.23
2019-01-12T06:20:35.715Z,9.60
2019-01-12T06:23:03.768Z,8.83
2019-01-12T06:25:31.607Z,9.03
2019-01-12T06:28:01.553Z,9.67
2019-01-12T06:30:29.695Z,9.23
2019-01-12T06:33:00.800Z,8.90
2019-01-12T06:35:28.678Z,8.37
2019-01-12T06:37:56.712Z,8.10
2019-01-12T06:40:25.880Z,9.30
2019-01-12T06:42:54.889Z,8.80
2019-01-12T06:45:26.716Z,10.40
2019-01-12T06:47:54.544Z,9.97
2019-01-12T06:50:22.556Z,10.13
2019-01-12T06:52:50.335Z,10.33
2019-01-12T06:55:18.108Z,10.70
2019-01-12T06:57:45.976Z,10.83
2019-01-12T07:00:18.727Z,10.67
2019-01-12T07:02:46.590Z,10.97
2019-01-12T07:05:14.514Z,11.87
2019-01-12T07:07:42.274Z,11.33
2019-01-12T07:10:10.683Z,13.83
2019-01-12T07:12:38.457Z,13.20
2019-01-12T07:15:09.032Z,11.80
2019-01-12T07:17:36.910Z,13.13
2019-01-12T07:20:08.638Z,12.30
2019-01-12T07:22:36.437Z,13.80
2019-01-12T07:25:05.973Z,13.93
2019-01-12T07:27:33.759Z,12.40
2019-01-12T07:30:09.147Z,13.80
2019-01-12T07:32:37.015Z,13.30
2019-01-12T07:35:05.026Z,14.17
2019-01-12T07:37:32.952Z,14.80
2019-01-12T07:40:00.717Z,14.90
2019-01-12T07:42:28.515Z,14.43
2019-01-12T07:44:56.504Z,16.00
2019-01-12T07:47:24.265Z,14.43
2019-01-12T07:49:52.180Z,14.60
2019-01-12T07:52:19.966Z,15.83
2019-01-12T07:54:47.901Z,15.37
2019-01-12T07:57:15.990Z,14.40
2019-01-12T07:59:44.020Z,15.50
2019-01-12T08:02:11.845Z,17.20
2019-01-12T08:04:39.921Z,18.30
2019-01-12T08:07:07.916Z,15.90
2019-01-12T08:09:43.353Z,17.47
2019-01-12T08:12:13.172Z,15.60
2019-01-12T08:14:41.058Z,16.80
2019-01-12T08:17:09.909Z,16.40
2019-01-12T08:19:38.057Z,16.10
2019-01-12T08:22:08.852Z,18.53
2019-01-12T08:24:36.647Z,16.73
2019-01-12T08:27:04.670Z,16.27
2019-01-12T08:29:32.696Z,15.80
2019-01-12T08:32:01.951Z,16.67
2019-01-12T08:34:32.027Z,16.27
2019-01-12T08:37:01.952Z,16.80
2019-01-12T08:39:29.805Z,17.23
2019-01-12T08:41:57.716Z,15.73
2019-01-12T08:44:25.588Z,14.50
2019-01-12T08:46:53.361Z,16.63
2019-01-12T08:49:21.292Z,15.10
2019-01-12T08:51:49.121Z,14.00
2019-01-12T08:54:19.157Z,15.90
2019-01-12T08:56:47.291Z,13.83
2019-01-12T08:59:15.140Z,15.17
2019-01-12T09:01:43.247Z,15.07
2019-01-12T09:04:12.386Z,16.07
2019-01-12T09:06:40.603Z,14.80
2019-01-12T09:09:08.766Z,15.77
2019-01-12T09:11:36.861Z,16.57
2019-01-12T09:14:07.798Z,16.40
2019-01-12T09:16:35.738Z,14.23
2019-01-12T09:19:03.844Z,16.03
2019-01-12T09:21:31.956Z,15.57
2019-01-12T09:24:00.027Z,15.63
2019-01-12T09:26:28.025Z,15.70
2019-01-12T09:28:56.092Z,14.87
2019-01-12T09:31:24.361Z,15.90
2019-01-12T09:33:52.601Z,15.27
2019-01-12T09:36:20.418Z,13.77
2019-01-12T09:38:48.804Z,16.40
2019-01-12T09:41:16.929Z,14.50
2019-01-12T09:43:44.925Z,14.57
2019-01-12T09:46:12.698Z,11.90
2019-01-12T09:48:40.615Z,13.53
2019-01-12T09:51:08.418Z,13.00
2019-01-12T09:53:36.196Z,11.93
2019-01-12T09:56:04.082Z,12.17
2019-01-12T09:58:31.872Z,13.00
2019-01-12T10:00:59.762Z,12.37
2019-01-12T10:03:30.007Z,11.30
2019-01-12T10:06:00.135Z,13.07
2019-01-12T10:08:28.053Z,13.57
2019-01-12T10:11:00.393Z,12.80
2019-01-12T10:13:29.846Z,12.03
2019-01-12T10:15:57.770Z,14.40
2019-01-12T10:18:25.580Z,13.10
2019-01-12T10:20:54.299Z,12.87
2019-01-12T10:23:22.107Z,14.20
2019-01-12T10:25:50.002Z,14.77
2019-01-12T10:28:17.949Z,14.90
2019-01-12T10:30:45.818Z,14.60
2019-01-12T10:33:13.840Z,15.40
2019-01-12T10:35:41.819Z,14.40
2019-01-12T10:38:09.821Z,15.30
2019-01-12T10:40:37.768Z,15.17
2019-01-12T10:43:05.579Z,14.50
2019-01-12T10:45:33.515Z,14.27
2019-01-12T10:48:01.740Z,14.87
2019-01-12T10:50:32.374Z,14.90
2019-01-12T10:53:00.382Z,14.80
2019-01-12T10:55:43.876Z,13.27
2019-01-12T10:58:13.948Z,14.07
2019-01-12T11:00:42.032Z,15.67
2019-01-12T11:03:16.029Z,12.87
2019-01-12T11:05:44.024Z,12.00
2019-01-12T11:08:14.908Z,13.23
2019-01-12T11:10:42.862Z,14.20
2019-01-12T11:13:13.533Z,13.50
2019-01-12T11:15:41.492Z,11.80
2019-01-12T11:18:09.509Z,12.30
2019-01-12T11:20:37.280Z,12.23
2019-01-12T11:23:05.217Z,11.07
2019-01-12T11:25:33.374Z,12.30
2019-01-12T11:28:01.310Z,10.90
2019-01-12T11:30:32.094Z,10.37
2019-01-12T11:33:00.135Z,10.70
2019-01-12T11:35:28.009Z,11.70
2019-01-12T11:37:55.835Z,10.90
2019-01-12T11:40:23.782Z,11.00
2019-01-12T11:42:52.353Z,9.60
2019-01-12T11:45:20.311Z,9.40
2019-01-12T11:47:48.664Z,9.10
2019-01-12T11:50:18.655Z,9.17
2019-01-12T11:52:46.867Z,9.30
2019-01-12T11:55:16.523Z,9.43
2019-01-12T11:57:44.891Z,8.97
2019-01-12T12:00:26.558Z,9.57
2019-01-12T12:02:54.406Z,9.77
2019-01-12T12:05:22.223Z,9.20
2019-01-12T12:07:50.567Z,8.77
2019-01-12T12:10:18.883Z,8.30
2019-01-12T12:12:46.787Z,8.33
2019-01-12T12:15:16.186Z,8.67
2019-01-12T12:17:44.076Z,9.27
2019-01-12T12:20:16.151Z,8.40
2019-01-12T12:22:44.378Z,10.67
2019-01-12T12:25:15.533Z,9.00
2019-01-12T12:27:45.633Z,8.90
2019-01-12T12:30:21.907Z,8.67
2019-01-12T12:32:50.059Z,8.90
2019-01-12T12:35:18.180Z,9.17
2019-01-12T12:37:47.881Z,8.30
2019-01-12T12:40:17.504Z,6.77
2019-01-12T12:42:45.385Z,7.30
2019-01-12T12:45:17.367Z,7.20
2019-01-12T12:47:45.561Z,7.10
2019-01-12T12:50:14.484Z,7.10
2019-01-12T12:52:42.379Z,6.53
2019-01-12T12:55:11.868Z,6.20
2019-01-12T12:57:40.001Z,8.23
2019-01-12T13:00:13.914Z,8.30
2019-01-12T13:02:41.967Z,6.47
2019-01-12T13:05:10.536Z,6.80
2019-01-12T13:07:38.657Z,6.90
2019-01-12T13:10:11.655Z,7.53
2019-01-12T13:12:39.593Z,6.30
2019-01-12T13:15:08.435Z,7.57
2019-01-12T13:17:37.096Z,7.90
2019-01-12T13:20:07.905Z,8.03
2019-01-12T13:22:35.833Z,8.33
2019-01-12T13:25:04.755Z,7.63
2019-01-12T13:27:32.740Z,8.60
2019-01-12T13:30:00.708Z,7.93
2019-01-12T13:32:28.665Z,7.33
2019-01-12T13:34:56.605Z,7.80
2019-01-12T13:37:24.937Z,7.70
2019-01-12T13:39:52.898Z,7.70
2019-01-12T13:42:20.894Z,7.93
2019-01-12T13:44:48.757Z,7.30
2019-01-12T13:47:20.764Z,8.20
2019-01-12T13:49:48.023Z,7.30
2019-01-12T13:52:16.065Z,7.43
2019-01-12T13:54:44.130Z,8.03
2019-01-12T13:57:13.510Z,8.87
2019-01-12T13:59:43.281Z,7.47
2019-01-12T14:02:11.868Z,6.37
2019-01-12T14:04:39.846Z,7.30
2019-01-12T14:07:07.705Z,6.53
2019-01-12T14:09:35.628Z,6.33
2019-01-12T14:12:03.657Z,6.73
2019-01-12T14:14:31.809Z,7.00
2019-01-12T14:16:59.786Z,6.57
2019-01-12T14:19:29.533Z,6.60
2019-01-12T14:21:59.174Z,6.67
2019-01-12T14:24:27.112Z,6.67
2019-01-12T14:26:54.976Z,7.47
2019-01-12T14:29:31.181Z,7.13
2019-01-12T14:31:59.128Z,7.00
2019-01-12T14:34:29.359Z,6.50
2019-01-12T14:36:57.139Z,5.70
2019-01-12T14:39:25.163Z,6.77
2019-01-12T14:41:52.993Z,6.53
2019-01-12T14:44:20.935Z,6.90
2019-01-12T14:46:48.857Z,6.27
2019-01-12T14:49:16.860Z,6.53
2019-01-12T14:51:47.550Z,6.10
2019-01-12T14:54:15.413Z,5.90
2019-01-12T14:56:43.702Z,6.20
2019-01-12T14:59:11.550Z,6.33
2019-01-12T15:01:39.511Z,7.63
2019-01-12T15:04:07.460Z,8.10
2019-01-12T15:06:38.547Z,5.10
2019-01-12T15:09:07.631Z,5.23
2019-01-12T15:11:37.665Z,5.67
2019-01-12T15:14:05.590Z,5.30
2019-01-12T15:16:33.501Z,6.07
2019-01-12T15:19:01.296Z,5.53
2019-01-12T15:21:31.411Z,5.67
2019-01-12T15:23:59.324Z,5.60
2019-01-12T15:26:27.303Z,6.27
2019-01-12T15:28:55.143Z,5.10
2019-01-12T15:31:23.131Z,5.53
2019-01-12T15:33:51.058Z,5.30
2019-01-12T15:36:19.740Z,4.90
2019-01-12T15:38:47.547Z,4.60
2019-01-12T15:41:15.483Z,5.10
2019-01-12T15:43:43.397Z,4.60
2019-01-12T15:46:11.143Z,6.07
2019-01-12T15:48:39.152Z,5.30
2019-01-12T15:51:07.136Z,5.90
2019-01-12T15:53:35.302Z,5.90
2019-01-12T15:56:03.257Z,5.60
2019-01-12T15:58:31.176Z,5.30
2019-01-12T16:00:59.004Z,4.83
2019-01-12T16:03:27.041Z,6.67
2019-01-12T16:05:54.970Z,5.87
2019-01-12T16:08:22.786Z,6.10
2019-01-12T16:10:50.857Z,5.20
2019-01-12T16:13:18.712Z,5.40
2019-01-12T16:15:46.535Z,5.40
2019-01-12T16:18:15.402Z,5.70
2019-01-12T16:20:43.287Z,6.17
2019-01-12T16:23:12.817Z,6.57
2019-01-12T16:25:40.909Z,5.20
2019-01-12T16:28:08.745Z,6.47
2019-01-12T16:30:36.542Z,5.30
2019-01-12T16:33:04.574Z,5.00
2019-01-12T16:35:32.472Z,5.70
2019-01-12T16:38:00.360Z,4.90
2019-01-12T16:40:30.870Z,4.77
2019-01-12T16:42:58.755Z,4.83
2019-01-12T16:45:26.733Z,5.20
2019-01-12T16:47:54.704Z,5.50
2019-01-12T16:50:22.514Z,5.10
2019-01-12T16:52:50.366Z,5.00
2019-01-12T16:55:18.853Z,5.57
2019-01-12T16:57:46.862Z,5.17
2019-01-12T17:00:29.375Z,5.80
2019-01-12T17:02:57.734Z,5.77
2019-01-12T17:05:26.978Z,6.53
2019-01-12T17:07:55.082Z,6.20
2019-01-12T17:10:22.881Z,5.50
2019-01-12T17:12:51.121Z,6.27
2019-01-12T17:15:21.313Z,4.80
2019-01-12T17:17:49.241Z,5.67
2019-01-12T17:20:23.100Z,4.87
2019-01-12T17:22:52.464Z,5.73
2019-01-12T17:25:22.761Z,6.27
2019-01-12T17:27:51.770Z,6.40
2019-01-12T17:30:21.221Z,6.60
2019-01-12T17:32:49.079Z,6.10
2019-01-12T17:35:17.006Z,5.17
2019-01-12T17:37:46.522Z,7.43
2019-01-12T17:40:14.600Z,5.73
2019-01-12T17:42:42.568Z,5.40
2019-01-12T17:45:14.545Z,5.03
2019-01-12T17:47:42.682Z,5.73
2019-01-12T17:50:13.958Z,6.30
2019-01-12T17:52:43.116Z,7.90
2019-01-12T17:55:13.983Z,8.37
2019-01-12T17:57:42.433Z,8.40
2019-01-12T18:00:27.184Z,6.73
2019-01-12T18:02:55.202Z,8.27
2019-01-12T18:05:23.102Z,7.33
2019-01-12T18:07:51.139Z,7.90
2019-01-12T18:10:19.045Z,7.47
2019-01-12T18:12:46.883Z,7.93
2019-01-12T18:15:14.892Z,7.00
2019-01-12T18:17:43.406Z,8.77
2019-01-12T18:20:13.024Z,7.47
2019-01-12T18:22:40.982Z,8.70
2019-01-12T18:25:10.786Z,8.93
2019-01-12T18:27:38.736Z,7.93
2019-01-12T18:30:12.093Z,7.63
2019-01-12T18:32:40.073Z,6.83
2019-01-12T18:35:08.299Z,6.80
2019-01-12T18:37:36.240Z,7.73
2019-01-12T18:40:09.606Z,7.87
2019-01-12T18:42:37.580Z,7.00
2019-01-12T18:45:07.495Z,9.07
2019-01-12T18:47:35.351Z,9.60
2019-01-12T18:50:04.640Z,5.97
2019-01-12T18:52:32.680Z,7.67
2019-01-12T18:55:03.225Z,6.70
2019-01-12T18:57:31.160Z,7.53
2019-01-12T19:00:01.879Z,7.17
2019-01-12T19:02:33.296Z,7.10
2019-01-12T19:05:01.137Z,7.17
2019-01-12T19:07:28.956Z,5.90
2019-01-12T19:09:59.573Z,5.80
2019-01-12T19:12:29.611Z,6.00
2019-01-12T19:14:57.582Z,6.30
2019-01-12T19:17:25.461Z,5.40
2019-01-12T19:19:53.321Z,6.60
2019-01-12T19:22:23.234Z,6.67
2019-01-12T19:24:51.369Z,6.90
2019-01-12T19:27:19.280Z,6.23
2019-01-12T19:29:51.292Z,6.23
2019-01-12T19:32:19.307Z,5.30
2019-01-12T19:34:47.181Z,5.90
2019-01-12T19:37:15.439Z,6.30
2019-01-12T19:39:43.339Z,8.33
2019-01-12T19:42:11.255Z,6.57
2019-01-12T19:44:39.442Z,4.40
2019-01-12T19:47:07.772Z,5.97
2019-01-12T19:49:35.633Z,6.00
2019-01-12T19:52:03.779Z,7.10
2019-01-12T19:54:31.667Z,7.03
2019-01-12T19:56:59.668Z,7.17
2019-01-12T19:59:27.728Z,7.73
2019-01-12T20:01:55.662Z,9.03
2019-01-12T20:04:24.021Z,8.10
2019-01-12T20:06:54.565Z,8.30
2019-01-12T20:09:24.240Z,7.23
2019-01-12T20:11:52.357Z,7.70
2019-01-12T20:14:20.434Z,8.03
2019-01-12T20:16:51.273Z,7.70
2019-01-12T20:19:22.398Z,8.70
2019-01-12T20:21:50.453Z,6.83
2019-01-12T20:24:21.590Z,5.97
2019-01-12T20:26:49.618Z,5.70
2019-01-12T20:29:21.296Z,6.83
2019-01-12T20:32:34.239Z,5.80
2019-01-12T20:35:53.491Z,6.00
2019-01-12T20:38:52.134Z,5.73
2019-01-12T20:42:04.817Z,6.00
2019-01-12T20:45:48.032Z,8.70
2019-01-12T20:49:03.199Z,5.80
2019-01-12T20:52:27.028Z,6.27
2019-01-12T20:56:08.922Z,5.70
2019-01-12T20:59:51.075Z,6.50
2019-01-12T21:02:45.873Z,6.73
2019-01-12T21:05:38.001Z,6.50
2019-01-12T21:09:16.027Z,7.33
2019-01-12T21:12:31.392Z,5.73
2019-01-12T21:15:38.200Z,5.90
2019-01-12T21:18:06.243Z,7.70
2019-01-12T21:20:35.709Z,7.50
2019-01-12T21:23:03.580Z,7.40
2019-01-12T21:25:31.641Z,6.77
2019-01-12T21:28:06.275Z,7.80
2019-01-12T21:30:34.548Z,8.10
2019-01-12T21:33:02.619Z,8.63
2019-01-12T21:35:30.727Z,7.80
2019-01-12T21:37:58.595Z,7.20
2019-01-12T21:40:26.485Z,6.77
2019-01-12T21:42:54.742Z,7.23
2019-01-12T21:45:22.785Z,7.93
2019-01-12T21:47:50.889Z,7.47
2019-01-12T21:50:18.811Z,6.87
2019-01-12T21:52:47.200Z,7.10
2019-01-12T21:55:15.206Z,6.10
2019-01-12T21:57:43.171Z,6.93
2019-01-12T22:00:14.973Z,6.23
2019-01-12T22:02:45.984Z,7.27
2019-01-12T22:05:17.128Z,6.60
2019-01-12T22:07:48.262Z,6.93
2019-01-12T22:10:19.234Z,7.50
2019-01-12T22:12:46.172Z,7.50
2019-01-12T22:15:16.932Z,8.83
2019-01-12T22:17:45.047Z,7.90
2019-01-12T22:20:14.845Z,7.30
2019-01-12T22:22:42.912Z,8.43
2019-01-12T22:25:10.970Z,7.97
2019-01-12T22:27:38.784Z,7.40
2019-01-12T22:30:12.081Z,6.93
2019-01-12T22:32:40.036Z,8.47
2019-01-12T22:35:08.160Z,9.67
2019-01-12T22:37:36.221Z,8.70
2019-01-12T22:40:10.325Z,8.80
2019-01-12T22:42:38.188Z,9.20
2019-01-12T22:45:06.346Z,9.80
2019-01-12T22:47:34.252Z,9.00
2019-01-12T22:50:02.071Z,9.23
2019-01-12T22:52:29.971Z,9.50
2019-01-12T22:54:57.840Z,9.87
2019-01-12T22:57:25.876Z,9.80
2019-01-12T22:59:57.055Z,9.80
2019-01-12T23:02:23.830Z,11.13
2019-01-12T23:04:51.916Z,12.40
2019-01-12T23:07:20.003Z,12.77
2019-01-12T23:09:47.980Z,12.30
2019-01-12T23:12:15.838Z,13.53
2019-01-12T23:14:43.910Z,13.57
2019-01-12T23:17:11.776Z,14.30
2019-01-12T23:19:39.645Z,13.63
2019-01-12T23:22:07.667Z,15.63
2019-01-12T23:24:36.575Z,14.53
2019-01-12T23:27:10.479Z,16.70
2019-01-12T23:29:38.521Z,15.93
2019-01-12T23:32:06.401Z,16.27
2019-01-12T23:34:34.270Z,17.40
2019-01-12T23:37:02.500Z,17.70
2019-01-12T23:39:33.378Z,18.23
2019-01-12T23:42:01.378Z,17.93
2019-01-12T23:44:29.283Z,18.67
2019-01-12T23:46:57.234Z,19.07
2019-01-12T23:49:25.072Z,18.43
2019-01-12T23:51:52.912Z,16.87
2019-01-12T23:54:20.972Z,17.97
2019-01-12T23:56:51.288Z,17.30
2019-01-12T23:59:22.271Z,16.90
